Airfield :
LOGIN :

Register | Disclaimer

   EN    FR    IT 

 










Legend :    VFR   Marginal VFR   IFR   Intensive IFR   Very Intensive IFR
Visi :
Ceiling :
>= 8 km
>= 3000ft
5 to 8 km
1000 to 3000 ft
1500m to 5 km
500 to 1000 ft
800 to 1500m
200 to 500 ft
< 800m
< 200 ft
Symbols :   Thunderstorms  Fog  Heavy snow  Heavy precipitations  Wind > 20 kt
SIGMETs :     Misc.  Thunderstorms  Icing  Turbulence  Mountain Waves  Volcanic Ashes







- Airport Elevation : 146 ft
- IATA code : RKE


EKRK - Roskilde Tune

CURRENT METAR :
  • 281620Z AUTO 25011KT 9999NDV FEW032/// 19/10 Q1007

EXPIRED METARs :
  • 281550Z AUTO 26012KT 230V290 9999NDV BKN070/// 19/12 Q1007
  • 281520Z AUTO 23013KT 9999NDV FEW060/// BKN075/// 19/12 Q1007
  • 281450Z AUTO 23011KT 200V260 9999NDV FEW040/// 20/10 Q1007
  • 281420Z AUTO 22014KT 9999NDV FEW037/// 20/11 Q1006
  • 281350Z AUTO 21015KT 180V240 9999NDV FEW038/// BKN150/// 19/11 Q1006

TAF TAF EKRK
Valid from the 28 at 09:00 until the 28 at 18:00 UTC


280824Z 2809/2818 22008KT 9999 SCT030
TEMPO 2809/2818 SHRA BKN012 SCT020CB
PROB40 2812/2818 4000 TSRA
No reported NOTAMs for that airfield.



MET'MAP, your aeronautical weather chart ! - Copyright ORBIFLY December 2007 - Disclaimer

ORBIFLY MET'MAP TEAM :

Programming & Development : Alexandra Zaïnal
Concept & Development : Baudouin d'Aumeries
Co-Development & Prog : Marc-Olivier Méhu
Technical & hardware support : Manuel Goepfert

Contact : metmap@orbifly.com




SOURCES & CREDITS :

   NOAA